Terminal Aerodrome Forecast
Issued by NWS Charleston, WV

Current Version | Previous Version | Graphics & Text | Print | Product List | Glossary On
Versions: 1 2 3 4 5 6 7 8 9 10 11 12 13 14 15 16 17 18 19 20 21 22 23 24 25
007
FTUS41 KRLX 192325
TAFCRW
TAF
KCRW 192325Z 2000/2024 24004KT P6SM BKN100
     FM200300 VRB03KT P6SM VCTS BKN035CB
     FM200600 00000KT 5SM BR VCTS BKN040CB
     FM200800 00000KT 4SM BR FEW001 BKN040
     FM201000 00000KT 2SM BR FEW001 BKN050
     FM201100 00000KT 1SM BR SCT001
     FM201300 00000KT 6SM BR SCT060
     FM202100 00000KT P6SM BKN040=

USA.gov is the U.S. government's official web portal to all federal, state and local government web resources and services.